Time;durP1;ratioP1;P1;durP2;ratioP2;P2;SDS_P1;SDS_P2;PMS_P1;PMS_P2;Temp;Humidity;BMP_temperature;BMP_pressure;BME280_temperature;BME280_humidity;BME280_pressure;Samples;Min_cycle;Max_cycle;Signal;HPM_P1;HPM_P2
2023/05/26 00:03:48;;;;;;;39.53;7.47;;;;;;;7.84;100.00;102596.66;10450591;28;20083;-78
2023/05/26 00:08:49;;;;;;;23.48;8.40;;;;;;;7.85;100.00;102596.78;10483053;28;20051;-78
2023/05/26 00:13:49;;;;;;;20.20;7.10;;;;;;;7.78;100.00;102597.03;10466161;28;20044;-79
2023/05/26 00:18:50;;;;;;;40.60;10.00;;;;;;;7.73;100.00;102606.13;10483906;28;20146;-78
2023/05/26 00:23:51;;;;;;;23.60;9.10;;;;;;;7.76;100.00;102612.53;10492937;28;20147;-78
2023/05/26 00:28:51;;;;;;;27.90;9.02;;;;;;;7.73;100.00;102607.06;10490332;28;20053;-79
2023/05/26 00:33:51;;;;;;;23.40;9.30;;;;;;;7.75;100.00;102607.19;10489633;28;20029;-78
2023/05/26 00:38:52;;;;;;;25.98;7.72;;;;;;;7.68;100.00;102616.19;10491295;27;20539;-78
2023/05/26 00:43:52;;;;;;;25.30;8.98;;;;;;;7.59;100.00;102613.66;10509343;28;20124;-78
2023/05/26 00:48:53;;;;;;;39.13;11.82;;;;;;;7.44;100.00;102612.31;10492224;28;20047;-78
2023/05/26 00:53:53;;;;;;;23.60;9.98;;;;;;;7.31;100.00;102621.66;10487157;28;20131;-78
2023/05/26 00:58:55;;;;;;;28.45;8.60;;;;;;;7.25;100.00;102622.81;10492322;28;20468;-79
2023/05/26 01:03:55;;;;;;;19.75;7.82;;;;;;;7.16;100.00;102620.28;10487647;28;20131;-79
2023/05/26 01:08:56;;;;;;;18.00;8.90;;;;;;;7.06;100.00;102615.94;10455870;28;20052;-79
2023/05/26 01:14:05;;;;;;;32.60;11.73;;;;;;;7.06;100.00;102634.16;10450523;28;20051;-79
2023/05/26 01:19:36;;;;;;;20.85;8.68;;;;;;;7.11;100.00;102632.91;10465584;28;20047;-78
2023/05/26 01:24:40;;;;;;;30.70;8.75;;;;;;;7.10;100.00;102637.94;10462647;28;20075;-79
2023/05/26 01:29:41;;;;;;;21.85;7.47;;;;;;;7.11;100.00;102639.78;10482167;28;20037;-79
2023/05/26 01:34:41;;;;;;;25.73;8.80;;;;;;;6.96;100.00;102642.81;10489242;28;20060;-79
2023/05/26 01:39:42;;;;;;;31.27;9.10;;;;;;;6.84;100.00;102642.63;10488096;28;20033;-79
2023/05/26 01:44:49;;;;;;;36.83;10.48;;;;;;;6.68;100.00;102639.41;10458183;28;20563;-79
2023/05/26 01:49:50;;;;;;;64.55;11.25;;;;;;;6.65;100.00;102639.13;10487252;28;20474;-79
2023/05/26 01:54:54;;;;;;;22.20;7.00;;;;;;;6.60;100.00;102646.47;10454374;28;20049;-79
2023/05/26 01:59:55;;;;;;;24.80;10.55;;;;;;;6.64;100.00;102643.41;10471306;28;20044;-79
2023/05/26 02:04:55;;;;;;;24.45;9.50;;;;;;;6.70;100.00;102645.66;10463951;28;20131;-78
2023/05/26 02:09:56;;;;;;;21.73;7.55;;;;;;;6.48;100.00;102643.69;10489821;28;20057;-78
2023/05/26 02:14:56;;;;;;;49.60;9.45;;;;;;;6.42;100.00;102646.59;10502580;28;20448;-80
2023/05/26 02:19:57;;;;;;;31.58;10.30;;;;;;;6.26;100.00;102640.75;10469464;28;20052;-79
2023/05/26 02:24:57;;;;;;;40.28;10.32;;;;;;;6.15;100.00;102650.16;10474763;28;20037;-79
2023/05/26 02:29:58;;;;;;;32.05;10.55;;;;;;;6.10;100.00;102654.00;10486513;28;20037;-79
2023/05/26 02:34:59;;;;;;;26.52;9.10;;;;;;;6.08;100.00;102659.03;10486836;28;20060;-78
2023/05/26 02:39:59;;;;;;;48.08;12.52;;;;;;;5.94;100.00;102655.13;10486457;28;20044;-79
2023/05/26 02:45:00;;;;;;;31.52;11.38;;;;;;;5.90;100.00;102657.25;10469029;28;20132;-79
2023/05/26 02:50:01;;;;;;;35.78;12.00;;;;;;;5.86;100.00;102658.66;10459494;28;20457;-79
2023/05/26 02:55:01;;;;;;;33.22;9.98;;;;;;;5.78;100.00;102662.22;10466738;28;20048;-78
2023/05/26 03:00:02;;;;;;;24.58;9.65;;;;;;;5.68;100.00;102671.72;10467592;28;20115;-79
2023/05/26 03:05:05;;;;;;;24.38;9.88;;;;;;;5.63;100.00;102667.78;10469952;28;20116;-79
2023/05/26 03:10:06;;;;;;;29.83;8.55;;;;;;;5.58;100.00;102663.81;10471373;28;20028;-78
2023/05/26 03:15:07;;;;;;;30.02;11.27;;;;;;;5.63;100.00;102674.63;10484012;28;20032;-78
2023/05/26 03:20:08;;;;;;;44.00;11.90;;;;;;;5.58;100.00;102682.91;10476000;28;20186;-78
2023/05/26 03:25:08;;;;;;;21.38;9.68;;;;;;;5.52;100.00;102674.50;10485680;28;20094;-78
2023/05/26 03:30:09;;;;;;;24.35;9.13;;;;;;;5.55;100.00;102680.00;10478189;28;20029;-79
2023/05/26 03:35:10;;;;;;;27.75;11.10;;;;;;;5.49;100.00;102681.09;10485459;28;20464;-78
2023/05/26 03:40:10;;;;;;;39.30;13.75;;;;;;;5.57;100.00;102690.56;10483938;28;20071;-78
2023/05/26 03:45:12;;;;;;;24.33;10.20;;;;;;;5.51;100.00;102688.25;10483122;28;20044;-79
2023/05/26 03:50:13;;;;;;;40.45;12.30;;;;;;;5.49;100.00;102694.09;10474696;28;20036;-79
2023/05/26 03:55:17;;;;;;;38.70;13.20;;;;;;;5.63;100.00;102693.75;10466463;28;20377;-78
2023/05/26 04:00:18;;;;;;;25.65;12.10;;;;;;;5.75;100.00;102708.69;10456099;28;20082;-78
2023/05/26 04:05:19;;;;;;;35.15;11.30;;;;;;;5.73;100.00;102716.31;10483342;28;20040;-78
2023/05/26 04:10:19;;;;;;;32.25;10.75;;;;;;;5.75;100.00;102709.59;10479125;28;20037;-80
2023/05/26 04:15:20;;;;;;;27.77;10.13;;;;;;;5.80;100.00;102716.16;10447600;28;20553;-78
2023/05/26 04:20:21;;;;;;;30.80;12.27;;;;;;;6.04;100.00;102716.72;10477969;28;20040;-80
2023/05/26 04:25:21;;;;;;;35.08;10.35;;;;;;;6.17;100.00;102706.72;10483932;28;20133;-78
2023/05/26 04:30:23;;;;;;;28.60;9.25;;;;;;;6.16;100.00;102710.09;10481800;28;20395;-78
2023/05/26 04:35:24;;;;;;;39.28;11.00;;;;;;;6.31;100.00;102717.50;10483475;28;20087;-78
2023/05/26 04:40:25;;;;;;;30.25;13.15;;;;;;;6.44;100.00;102711.78;10480761;28;20044;-78
2023/05/26 04:45:26;;;;;;;52.58;10.00;;;;;;;6.76;100.00;102727.81;10482441;28;20415;-81
2023/05/26 04:50:27;;;;;;;24.67;11.82;;;;;;;7.10;100.00;102718.66;10481054;28;20392;-80
2023/05/26 04:55:28;;;;;;;24.70;9.55;;;;;;;7.53;100.00;102706.03;10479193;28;20064;-78
2023/05/26 05:00:31;;;;;;;41.75;8.98;;;;;;;7.84;100.00;102698.31;10481428;28;20124;-78
2023/05/26 05:05:31;;;;;;;24.58;7.65;;;;;;;8.14;100.00;102691.34;10482920;28;20127;-78
2023/05/26 05:10:32;;;;;;;32.05;7.95;;;;;;;8.38;100.00;102693.47;10486913;28;20111;-80
2023/05/26 05:15:32;;;;;;;22.98;8.82;;;;;;;8.46;100.00;102691.50;10455588;28;20037;-80
2023/05/26 05:20:33;;;;;;;32.88;10.73;;;;;;;8.69;100.00;102692.59;10429241;28;20557;-82
2023/05/26 05:25:33;;;;;;;32.17;6.63;;;;;;;8.80;100.00;102691.78;10436662;28;20036;-83
2023/05/26 05:30:34;;;;;;;24.80;8.82;;;;;;;9.14;100.00;102692.78;10434882;28;20044;-79
2023/05/26 05:35:34;;;;;;;19.27;7.55;;;;;;;9.95;100.00;102690.63;10448288;28;20032;-79
2023/05/26 05:40:35;;;;;;;26.42;7.10;;;;;;;10.65;100.00;102692.50;10431186;28;20448;-78
2023/05/26 05:45:35;;;;;;;15.05;7.63;;;;;;;12.02;100.00;102688.59;10464948;28;20059;-79
2023/05/26 05:50:36;;;;;;;33.15;7.97;;;;;;;12.42;100.00;102695.72;10484258;28;20524;-79
2023/05/26 05:55:36;;;;;;;28.20;8.00;;;;;;;12.99;100.00;102698.69;10488197;28;20145;-80
2023/05/26 06:00:37;;;;;;;23.55;8.95;;;;;;;13.82;100.00;102702.31;10488220;28;20053;-81
2023/05/26 06:05:37;;;;;;;23.95;7.28;;;;;;;14.70;100.00;102708.56;10488099;28;20120;-78
2023/05/26 06:10:38;;;;;;;19.50;6.80;;;;;;;15.66;100.00;102701.81;10481623;28;20388;-78
2023/05/26 06:15:38;;;;;;;29.35;7.72;;;;;;;15.66;100.00;102711.44;10486311;28;20105;-80
2023/05/26 06:20:39;;;;;;;23.83;7.78;;;;;;;15.65;100.00;102713.19;10483793;28;20120;-81
2023/05/26 06:25:40;;;;;;;18.90;6.40;;;;;;;15.97;100.00;102715.81;10486259;28;20075;-81
2023/05/26 06:30:40;;;;;;;23.17;6.35;;;;;;;16.71;89.25;102713.59;10485338;28;20123;-82
2023/05/26 06:35:41;;;;;;;22.07;8.87;;;;;;;17.02;90.16;102717.81;10487696;28;20146;-82
2023/05/26 06:40:41;;;;;;;24.50;7.87;;;;;;;17.66;81.65;102705.94;10488153;28;20039;-80
2023/05/26 06:45:42;;;;;;;21.47;7.47;;;;;;;17.87;70.95;102708.69;10485678;28;20051;-84
2023/05/26 06:50:42;;;;;;;23.37;7.67;;;;;;;17.94;74.07;102717.84;10486872;28;20492;-83
2023/05/26 06:55:43;;;;;;;20.13;6.97;;;;;;;18.08;74.38;102714.97;10485082;28;20092;-82
2023/05/26 07:01:00;;;;;;;15.90;6.03;;;;;;;17.89;70.58;102724.66;10450861;28;20510;-81
2023/05/26 07:06:02;;;;;;;25.63;7.28;;;;;;;16.72;79.73;102731.25;10465322;28;20033;-81
2023/05/26 07:11:03;;;;;;;18.75;5.30;;;;;;;17.58;75.32;102720.56;10479934;28;20036;-82
2023/05/26 07:16:04;;;;;;;38.23;7.27;;;;;;;18.29;75.15;102729.19;10498812;28;20551;-81
2023/05/26 07:21:05;;;;;;;;;;;;;;;19.87;67.07;102729.59;10483017;28;20045;-81
2023/05/26 07:26:06;;;;;;;16.67;6.90;;;;;;;20.72;61.59;102733.63;10481942;28;19977;-81
2023/05/26 07:31:06;;;;;;;26.37;7.73;;;;;;;21.22;55.70;102726.47;10487614;28;20124;-81
2023/05/26 07:36:07;;;;;;;22.77;7.20;;;;;;;20.77;56.89;102726.69;10447751;28;20041;-80
2023/05/26 07:41:08;;;;;;;19.40;7.27;;;;;;;21.08;53.98;102725.13;10483353;28;20033;-80
2023/05/26 07:46:09;;;;;;;25.48;7.63;;;;;;;20.78;57.40;102718.78;10465344;28;20531;-79
2023/05/26 07:51:09;;;;;;;23.53;8.17;;;;;;;20.93;54.00;102722.81;10413844;28;20041;-80
2023/05/26 07:56:11;;;;;;;21.90;8.37;;;;;;;20.95;53.94;102732.69;10424010;28;20127;-76
2023/05/26 08:01:12;;;;;;;14.43;6.32;;;;;;;20.95;52.17;102726.44;10440813;28;20041;-80
2023/05/26 08:06:12;;;;;;;22.17;7.17;;;;;;;21.11;57.51;102722.56;10389781;28;20080;-78
2023/05/26 08:11:13;;;;;;;23.70;7.63;;;;;;;21.53;51.74;102722.16;10432476;28;21684;-82
2023/05/26 08:16:13;;;;;;;22.27;7.20;;;;;;;21.80;52.09;102731.88;10434327;28;20052;-80
2023/05/26 08:21:14;;;;;;;21.10;6.93;;;;;;;22.40;50.02;102718.50;10437955;28;20148;-80
2023/05/26 08:26:14;;;;;;;18.40;6.47;;;;;;;22.72;50.42;102724.75;10436684;28;20041;-80
2023/05/26 08:31:15;;;;;;;20.63;6.73;;;;;;;22.84;50.47;102737.50;10418685;28;20065;-80
2023/05/26 08:36:15;;;;;;;17.60;6.67;;;;;;;22.94;47.93;102721.72;10417372;28;20167;-79
2023/05/26 08:41:18;;;;;;;23.47;7.87;;;;;;;22.34;49.41;102728.97;10405260;28;20049;-77
2023/05/26 08:46:19;;;;;;;19.23;7.45;;;;;;;22.77;49.75;102727.53;10443679;28;20037;-77
2023/05/26 08:51:20;;;;;;;20.13;7.07;;;;;;;23.25;48.17;102719.84;10442781;28;20549;-78
2023/05/26 08:56:21;;;;;;;19.60;6.80;;;;;;;23.20;49.84;102727.72;10434875;28;20037;-77
2023/05/26 09:01:21;;;;;;;21.63;12.27;;;;;;;23.88;46.78;102712.38;10415594;28;20068;-78
2023/05/26 09:06:22;;;;;;;27.30;6.33;;;;;;;23.53;47.03;102716.09;10445959;28;20037;-78
2023/05/26 09:11:24;;;;;;;20.13;8.30;;;;;;;23.84;45.79;102707.81;10431671;28;20487;-78
2023/05/26 09:16:25;;;;;;;17.20;7.05;;;;;;;24.05;44.06;102719.00;10447139;28;20358;-77
2023/05/26 09:21:26;;;;;;;18.98;5.28;;;;;;;24.46;42.58;102723.41;10435683;28;20041;-78
2023/05/26 09:26:28;;;;;;;25.85;7.53;;;;;;;23.97;44.96;102723.25;10406019;28;20041;-77
2023/05/26 09:31:43;;;;;;;21.30;7.60;;;;;;;24.22;43.69;102721.13;10407829;28;20497;-77
2023/05/26 09:36:44;;;;;;;21.60;6.47;;;;;;;23.81;47.87;102727.41;10436656;28;20374;-76
2023/05/26 09:41:45;;;;;;;19.90;6.93;;;;;;;24.64;44.31;102722.84;10485320;28;20060;-76
2023/05/26 09:46:46;;;;;;;17.38;6.05;;;;;;;24.63;41.51;102720.16;10487709;28;20119;-77
2023/05/26 09:51:48;;;;;;;17.77;6.60;;;;;;;24.30;42.34;102724.88;10451348;28;20040;-78
2023/05/26 09:56:53;;;;;;;22.58;6.43;;;;;;;24.48;43.22;102712.72;10479387;28;20120;-77
2023/05/26 10:01:54;;;;;;;21.88;7.63;;;;;;;24.72;42.31;102717.63;10479706;28;20120;-76
2023/05/26 10:06:56;;;;;;;20.23;6.93;;;;;;;25.21;42.48;102703.31;10501598;27;20044;-77
2023/05/26 10:11:57;;;;;;;14.50;5.75;;;;;;;24.52;41.32;102711.00;10467349;28;20131;-78
2023/05/26 10:16:57;;;;;;;19.00;6.23;;;;;;;24.09;43.15;102709.31;10457232;28;20048;-78
2023/05/26 10:22:03;;;;;;;30.13;8.53;;;;;;;25.01;41.74;102694.94;10484038;28;20051;-79
2023/05/26 10:27:29;;;;;;;15.10;5.82;;;;;;;24.84;40.11;102695.53;10429807;28;20036;-82
2023/05/26 10:32:48;;;;;;;18.77;5.95;;;;;;;24.29;40.87;102698.09;10478898;28;20072;-79
2023/05/26 10:37:52;;;;;;;14.90;6.88;;;;;;;25.27;41.86;102683.72;10482710;28;20036;-77
2023/05/26 10:43:01;;;;;;;24.55;6.90;;;;;;;25.34;38.76;102693.66;10477023;28;20492;-79
2023/05/26 10:48:10;;;;;;;20.48;6.97;;;;;;;25.54;35.87;102695.75;10464376;28;20663;-77
2023/05/26 10:53:18;;;;;;;21.30;6.53;;;;;;;25.29;37.92;102690.00;10468912;28;20481;-76
2023/05/26 10:58:27;;;;;;;17.58;5.30;;;;;;;25.53;37.21;102683.22;10459854;28;20033;-79
2023/05/26 11:03:41;;;;;;;17.98;6.88;;;;;;;24.76;37.85;102687.41;10469275;28;20087;-78
2023/05/26 11:08:48;;;;;;;27.52;6.63;;;;;;;25.13;37.30;102686.19;10480982;28;20138;-77
2023/05/26 11:13:57;;;;;;;17.35;5.57;;;;;;;24.86;37.17;102679.53;10499681;28;20036;-78
2023/05/26 11:18:57;;;;;;;14.30;6.07;;;;;;;25.34;39.03;102673.13;10484118;28;20056;-77
2023/05/26 11:23:58;;;;;;;14.77;5.33;;;;;;;25.26;35.09;102677.47;10435677;28;20163;-78
2023/05/26 11:29:00;;;;;;;13.23;5.68;;;;;;;25.25;35.58;102675.69;10444534;28;20082;-78
2023/05/26 11:34:01;;;;;;;17.20;6.70;;;;;;;25.39;37.94;102669.63;10454826;28;20037;-78
2023/05/26 11:39:01;;;;;;;19.80;7.93;;;;;;;25.38;34.21;102670.50;10442790;28;20025;-78
2023/05/26 11:44:02;;;;;;;20.27;6.23;;;;;;;25.37;35.65;102656.19;10423846;28;20048;-79
2023/05/26 11:49:03;;;;;;;16.17;7.70;;;;;;;25.36;32.71;102660.66;10424368;28;20040;-78
2023/05/26 11:54:08;;;;;;;14.97;5.97;;;;;;;24.86;35.21;102655.44;10425603;28;20041;-78
2023/05/26 11:59:08;;;;;;;18.02;6.03;;;;;;;24.78;35.27;102652.59;10396057;28;20382;-77
2023/05/26 12:04:09;;;;;;;17.53;4.93;;;;;;;25.39;34.37;102659.78;10445566;28;20064;-77
2023/05/26 12:09:18;;;;;;;7.80;4.43;;;;;;;24.62;32.47;102657.66;10521694;28;20036;-78
2023/05/26 12:14:21;;;;;;;14.38;5.45;;;;;;;24.18;33.75;102663.09;10469738;28;20490;-79
2023/05/26 12:19:22;;;;;;;15.43;4.80;;;;;;;24.58;34.75;102661.16;10494356;28;20433;-78
2023/05/26 12:24:33;;;;;;;15.97;5.13;;;;;;;25.24;33.43;102652.44;10501019;28;20041;-79
2023/05/26 12:29:37;;;;;;;27.85;6.93;;;;;;;24.60;32.89;102656.72;10493555;28;20123;-79
2023/05/26 12:34:39;;;;;;;13.32;5.07;;;;;;;25.05;32.20;102636.09;10494171;28;20036;-80
2023/05/26 12:39:39;;;;;;;13.73;4.35;;;;;;;24.56;30.82;102646.84;10466497;28;20051;-78
2023/05/26 12:44:40;;;;;;;14.03;4.43;;;;;;;24.33;33.87;102644.66;10504657;28;20056;-77
2023/05/26 12:49:40;;;;;;;16.57;5.93;;;;;;;24.22;33.80;102640.00;10488676;28;20043;-78
2023/05/26 12:54:41;;;;;;;20.73;7.07;;;;;;;23.55;35.41;102635.94;10495480;28;20068;-78
2023/05/26 12:59:41;;;;;;;11.20;5.07;;;;;;;23.13;35.77;102641.22;10497838;28;20109;-77
2023/05/26 13:04:42;;;;;;;20.47;4.37;;;;;;;23.32;31.14;102628.31;10496957;28;20068;-79
2023/05/26 13:09:43;;;;;;;9.50;4.20;;;;;;;23.73;33.12;102630.97;10483000;28;20070;-78
2023/05/26 13:14:44;;;;;;;23.90;5.82;;;;;;;24.41;33.88;102615.38;10505627;27;20075;-78
2023/05/26 13:19:45;;;;;;;18.27;4.80;;;;;;;24.74;30.45;102615.94;10476438;28;20059;-80
2023/05/26 13:24:45;;;;;;;19.10;5.90;;;;;;;25.02;31.27;102613.69;10493199;28;20089;-81
2023/05/26 13:29:46;;;;;;;8.43;3.70;;;;;;;24.68;31.03;102613.13;10524968;28;20036;-78
2023/05/26 13:34:46;;;;;;;8.63;3.73;;;;;;;24.77;28.83;102607.97;10487254;28;20115;-78
2023/05/26 13:39:47;;;;;;;15.83;5.67;;;;;;;24.92;30.80;102602.84;10494520;28;20120;-79
2023/05/26 13:44:47;;;;;;;14.80;4.47;;;;;;;25.11;33.88;102597.78;10463078;28;20071;-80
2023/05/26 13:49:48;;;;;;;17.23;5.37;;;;;;;24.98;32.28;102604.75;10461458;28;20047;-80
2023/05/26 13:54:48;;;;;;;12.63;4.30;;;;;;;24.80;33.22;102596.41;10493388;28;20087;-81
2023/05/26 13:59:49;;;;;;;13.07;4.40;;;;;;;24.67;32.62;102584.56;10526483;28;20036;-80
2023/05/26 14:04:49;;;;;;;19.77;6.80;;;;;;;24.86;31.43;102589.38;10529832;28;20028;-82
2023/05/26 14:09:50;;;;;;;15.53;5.13;;;;;;;24.58;32.72;102593.38;10502248;28;20048;-80
2023/05/26 14:14:50;;;;;;;22.17;5.43;;;;;;;24.10;33.72;102582.72;10517642;28;20045;-82
2023/05/26 14:19:51;;;;;;;13.20;5.00;;;;;;;23.96;33.55;102586.88;10533739;28;20114;-81
2023/05/26 14:24:52;;;;;;;21.23;5.53;;;;;;;23.82;31.11;102587.50;10478994;28;20036;-79
2023/05/26 14:29:57;;;;;;;13.60;5.28;;;;;;;23.51;32.92;102580.63;10460034;28;20072;-79
2023/05/26 14:34:57;;;;;;;15.15;4.97;;;;;;;22.57;35.06;102569.59;10469253;28;20384;-80
2023/05/26 14:39:58;;;;;;;12.20;4.67;;;;;;;22.01;36.68;102581.44;10468478;28;20043;-80
2023/05/26 14:44:59;;;;;;;17.63;3.93;;;;;;;22.38;36.32;102573.50;10532723;28;20060;-78
2023/05/26 14:49:59;;;;;;;17.37;3.97;;;;;;;22.41;36.49;102576.25;10496492;28;20064;-79
2023/05/26 14:55:00;;;;;;;13.20;5.57;;;;;;;22.21;34.75;102581.09;10517604;28;20425;-80
2023/05/26 15:00:01;;;;;;;9.63;3.70;;;;;;;21.84;35.12;102579.22;10501825;28;20527;-78
2023/05/26 15:05:01;;;;;;;10.13;3.73;;;;;;;20.87;38.35;102570.94;10505734;28;20043;-79
2023/05/26 15:10:03;;;;;;;12.27;4.10;;;;;;;20.09;39.83;102579.88;10488254;28;20560;-79
2023/05/26 15:15:04;;;;;;;12.02;4.70;;;;;;;19.93;41.68;102573.09;10492537;28;20104;-78
2023/05/26 15:20:06;;;;;;;10.70;4.27;;;;;;;19.67;42.51;102566.81;10486171;28;20051;-79
2023/05/26 15:25:06;;;;;;;14.73;6.22;;;;;;;19.55;42.42;102559.28;10514878;28;20534;-81
2023/05/26 15:30:07;;;;;;;12.68;5.28;;;;;;;19.49;41.27;102557.31;10474374;28;20082;-81
2023/05/26 15:35:09;;;;;;;;;;;;;;;19.18;40.95;102557.88;10518968;28;20093;-81
2023/05/26 15:40:10;;;;;;;18.27;6.15;;;;;;;19.19;43.83;102557.03;10517165;28;20325;-80
2023/05/26 15:45:10;;;;;;;14.93;4.50;;;;;;;19.36;43.33;102555.03;10488518;28;20039;-83
2023/05/26 15:50:12;;;;;;;16.33;5.07;;;;;;;19.04;42.65;102565.31;10487880;28;20038;-82
2023/05/26 15:55:13;;;;;;;9.65;4.38;;;;;;;18.88;41.16;102572.63;10502896;28;20078;-84
2023/05/26 16:00:14;;;;;;;17.67;4.28;;;;;;;18.70;44.45;102562.13;10449514;28;20064;-83
2023/05/26 16:05:14;;;;;;;16.33;4.57;;;;;;;18.72;42.30;102556.91;10456900;28;20357;-84
2023/05/26 16:10:15;;;;;;;15.93;4.63;;;;;;;18.53;41.53;102560.53;10446737;28;20135;-87
2023/05/26 16:15:17;;;;;;;15.88;3.97;;;;;;;18.44;41.91;102559.31;10472840;28;20047;-85
2023/05/26 16:20:17;;;;;;;16.55;5.60;;;;;;;18.35;44.02;102558.91;10479851;28;20615;-86
2023/05/26 16:25:18;;;;;;;16.98;4.95;;;;;;;18.47;46.22;102550.59;10503751;28;20032;-86
2023/05/26 16:30:18;;;;;;;14.65;4.18;;;;;;;18.47;46.77;102550.59;10463522;28;20045;-80
2023/05/26 16:35:22;;;;;;;17.42;4.97;;;;;;;18.44;45.78;102545.16;10479753;28;20131;-81
2023/05/26 16:40:22;;;;;;;11.95;4.70;;;;;;;18.48;46.76;102555.94;10465687;28;20067;-86
2023/05/26 16:45:23;;;;;;;15.68;5.57;;;;;;;18.27;45.39;102548.00;10456103;28;20451;-83
2023/05/26 16:50:23;;;;;;;18.15;5.10;;;;;;;18.20;48.17;102540.63;10436769;28;20045;-79
2023/05/26 16:55:25;;;;;;;12.10;4.22;;;;;;;18.02;45.28;102543.38;10440868;28;20094;-88
2023/05/26 17:00:26;;;;;;;12.88;4.35;;;;;;;17.78;44.71;102549.38;10462377;28;20457;-80
2023/05/26 17:05:26;;;;;;;10.52;3.85;;;;;;;17.67;46.50;102548.91;10439443;28;20044;-86
2023/05/26 17:10:27;;;;;;;14.63;4.22;;;;;;;17.64;48.36;102548.75;10444523;28;20072;-87
2023/05/26 17:15:27;;;;;;;12.27;4.90;;;;;;;17.59;51.41;102559.13;10436807;28;20037;-86
2023/05/26 17:20:28;;;;;;;6.97;3.35;;;;;;;17.45;51.09;102544.34;10440518;28;20063;-86
2023/05/26 17:25:28;;;;;;;12.32;5.50;;;;;;;17.39;50.13;102550.28;10443913;28;20480;-83
2023/05/26 17:30:30;;;;;;;12.60;4.65;;;;;;;17.14;52.76;102546.50;10422384;28;20528;-82
2023/05/26 17:35:31;;;;;;;13.27;5.38;;;;;;;16.96;54.33;102543.81;10435279;28;20393;-81
2023/05/26 17:40:31;;;;;;;16.42;3.95;;;;;;;16.94;54.69;102545.50;10444860;28;20120;-80
2023/05/26 17:45:33;;;;;;;17.20;6.22;;;;;;;16.81;55.92;102541.38;10413219;28;20148;-82
2023/05/26 17:50:34;;;;;;;15.90;6.38;;;;;;;16.52;60.20;102547.84;10439057;28;20048;-79
2023/05/26 17:55:37;;;;;;;10.97;3.87;;;;;;;16.40;62.44;102553.44;10456409;28;20116;-80
2023/05/26 18:00:37;;;;;;;12.50;4.80;;;;;;;16.29;63.25;102547.59;10411503;28;20048;-82
2023/05/26 18:05:38;;;;;;;9.68;4.63;;;;;;;16.08;68.43;102552.69;10436283;28;20075;-81
2023/05/26 18:10:38;;;;;;;18.48;4.75;;;;;;;16.04;66.34;102550.72;10444084;28;20071;-83
2023/05/26 18:15:39;;;;;;;16.85;4.20;;;;;;;15.91;66.00;102558.00;10424082;28;20186;-80
2023/05/26 18:20:39;;;;;;;17.65;4.80;;;;;;;15.73;68.67;102560.50;10445678;28;20136;-82
2023/05/26 18:25:40;;;;;;;12.82;4.07;;;;;;;15.57;69.33;102557.06;10466731;28;20123;-82
2023/05/26 18:30:40;;;;;;;11.65;3.50;;;;;;;15.35;78.15;102557.63;10485270;28;20119;-82
2023/05/26 18:35:41;;;;;;;18.95;3.75;;;;;;;15.17;76.58;102552.22;10483964;28;20052;-82
2023/05/26 18:40:41;;;;;;;14.88;3.83;;;;;;;15.04;82.96;102560.28;10473909;28;20106;-82
2023/05/26 18:45:42;;;;;;;10.13;3.97;;;;;;;14.93;82.47;102565.84;10486594;28;20052;-84
2023/05/26 18:50:43;;;;;;;13.90;3.45;;;;;;;14.94;80.02;102549.22;10486689;28;20129;-82
2023/05/26 18:55:43;;;;;;;11.63;4.13;;;;;;;14.77;81.72;102548.25;10485265;28;20040;-82
2023/05/26 19:00:44;;;;;;;18.33;7.45;;;;;;;14.56;84.30;102554.91;10480998;28;20423;-83
2023/05/26 19:05:45;;;;;;;8.80;3.13;;;;;;;14.39;85.44;102560.09;10443037;28;20047;-84
2023/05/26 19:10:45;;;;;;;15.27;7.03;;;;;;;14.26;88.18;102573.34;10442196;28;20068;-82
2023/05/26 19:15:46;;;;;;;14.60;3.22;;;;;;;13.98;94.62;102571.66;10439438;28;20033;-82
2023/05/26 19:20:47;;;;;;;12.10;4.20;;;;;;;13.99;98.53;102571.75;10442818;28;20049;-82
2023/05/26 19:25:47;;;;;;;15.68;4.15;;;;;;;13.72;100.00;102571.88;10439767;28;20063;-80
2023/05/26 19:30:48;;;;;;;13.85;3.33;;;;;;;13.44;100.00;102575.41;10476972;28;20128;-79
2023/05/26 19:35:48;;;;;;;10.55;4.15;;;;;;;13.31;100.00;102578.03;10445227;28;20503;-82
2023/05/26 19:40:49;;;;;;;14.50;4.10;;;;;;;13.09;100.00;102586.28;10424786;28;20116;-82
2023/05/26 19:45:49;;;;;;;11.63;4.10;;;;;;;12.92;100.00;102584.34;10441223;28;20400;-81
2023/05/26 19:50:50;;;;;;;14.68;4.75;;;;;;;12.95;100.00;102586.28;10442069;28;20065;-81
2023/05/26 19:55:51;;;;;;;13.60;5.50;;;;;;;12.69;100.00;102593.34;10419100;28;20472;-82
2023/05/26 20:00:51;;;;;;;11.20;4.35;;;;;;;12.43;100.00;102605.66;10415835;28;20131;-81
2023/05/26 20:05:52;;;;;;;12.25;5.45;;;;;;;12.47;100.00;102610.31;10425416;28;20435;-84
2023/05/26 20:10:52;;;;;;;15.38;5.43;;;;;;;12.38;100.00;102617.56;10442931;28;20060;-82
2023/05/26 20:15:53;;;;;;;17.80;4.80;;;;;;;12.22;100.00;102615.56;10424866;28;20090;-82
2023/05/26 20:20:54;;;;;;;24.77;5.78;;;;;;;12.27;100.00;102618.53;10439874;28;20119;-85
2023/05/26 20:25:54;;;;;;;14.55;4.82;;;;;;;12.18;100.00;102614.47;10443715;28;20095;-84
2023/05/26 20:30:55;;;;;;;11.65;4.53;;;;;;;12.01;100.00;102621.16;10474674;28;20136;-84
2023/05/26 20:35:56;;;;;;;18.83;5.93;;;;;;;11.87;100.00;102614.91;10436874;28;20539;-84
2023/05/26 20:40:56;;;;;;;15.43;6.40;;;;;;;11.65;100.00;102624.69;10433528;28;20060;-82
2023/05/26 20:45:57;;;;;;;16.50;5.68;;;;;;;11.44;100.00;102627.59;10449274;28;20061;-83
2023/05/26 20:50:58;;;;;;;19.00;8.05;;;;;;;11.35;100.00;102632.16;10448730;28;20064;-83
2023/05/26 20:55:59;;;;;;;11.80;4.50;;;;;;;11.11;100.00;102627.84;10448479;28;20503;-80
2023/05/26 21:00:59;;;;;;;15.13;6.25;;;;;;;10.95;100.00;102625.81;10449990;28;20380;-86
2023/05/26 21:06:00;;;;;;;19.65;6.60;;;;;;;10.72;100.00;102630.25;10448521;28;20132;-85
2023/05/26 21:11:00;;;;;;;14.40;4.47;;;;;;;10.53;100.00;102630.56;10449531;28;20384;-86
2023/05/26 21:16:01;;;;;;;17.05;7.30;;;;;;;10.48;100.00;102631.00;10431992;28;20464;-86
2023/05/26 21:21:01;;;;;;;22.75;5.18;;;;;;;10.34;100.00;102640.38;10449335;28;20033;-84
2023/05/26 21:26:02;;;;;;;14.23;6.10;;;;;;;10.16;100.00;102630.31;10446429;28;20057;-86
2023/05/26 21:31:02;;;;;;;13.60;5.78;;;;;;;9.94;100.00;102641.72;10487056;28;20029;-86
2023/05/26 21:36:03;;;;;;;19.30;4.82;;;;;;;9.85;100.00;102640.97;10489073;28;20499;-85
2023/05/26 21:41:04;;;;;;;21.40;6.03;;;;;;;9.66;100.00;102634.28;10488958;28;20044;-85
2023/05/26 21:46:04;;;;;;;12.77;5.32;;;;;;;9.49;100.00;102635.56;10488291;28;20508;-86
2023/05/26 21:51:05;;;;;;;18.73;7.97;;;;;;;9.39;100.00;102639.13;10461914;28;20128;-85
2023/05/26 21:56:05;;;;;;;17.85;5.40;;;;;;;9.17;100.00;102641.72;10470925;28;20127;-85
2023/05/26 22:01:06;;;;;;;21.33;6.60;;;;;;;9.06;100.00;102640.81;10480899;28;20048;-85
2023/05/26 22:06:07;;;;;;;16.50;5.38;;;;;;;8.95;100.00;102649.47;10486692;28;20054;-85
2023/05/26 22:11:07;;;;;;;20.35;6.30;;;;;;;8.84;100.00;102648.59;10489699;28;20471;-85
2023/05/26 22:16:08;;;;;;;17.23;8.70;;;;;;;8.71;100.00;102645.75;10488661;28;20116;-85
2023/05/26 22:21:15;;;;;;;19.42;5.25;;;;;;;8.62;100.00;102638.03;10484192;28;20476;-85
2023/05/26 22:26:15;;;;;;;22.52;7.28;;;;;;;8.42;100.00;102646.78;10489253;28;20028;-85
2023/05/26 22:31:16;;;;;;;13.95;6.75;;;;;;;8.30;100.00;102646.63;10487473;28;20028;-85
2023/05/26 22:36:16;;;;;;;13.07;5.53;;;;;;;8.25;100.00;102642.72;10488097;28;20437;-85
2023/05/26 22:41:17;;;;;;;19.85;7.18;;;;;;;8.12;100.00;102651.19;10468166;28;20127;-85
2023/05/26 22:46:17;;;;;;;13.50;6.10;;;;;;;7.98;100.00;102652.59;10488287;28;20112;-84
2023/05/26 22:51:18;;;;;;;19.25;5.80;;;;;;;7.89;100.00;102642.28;10486702;28;20107;-84